sensor_id;sensor_type;location;lat;lon;timestamp;pressure;altitude;pressure_sealevel;temperature;humidity
56630;BME280;42502;40.732;-74.254;2023-03-05T00:01:50;100194.13;;;18.54;38.02
56630;BME280;42502;40.732;-74.254;2023-03-05T00:03:52;100193.31;;;18.53;38.03
56630;BME280;42502;40.732;-74.254;2023-03-05T00:05:56;100194.13;;;18.54;37.57
56630;BME280;42502;40.732;-74.254;2023-03-05T00:08:01;100191.69;;;18.52;37.71
56630;BME280;42502;40.732;-74.254;2023-03-05T00:10:04;100201.72;;;18.53;37.65
56630;BME280;42502;40.732;-74.254;2023-03-05T00:12:05;100208.97;;;18.54;37.56
56630;BME280;42502;40.732;-74.254;2023-03-05T00:14:06;100212.47;;;18.51;37.81
56630;BME280;42502;40.732;-74.254;2023-03-05T00:16:10;100216.50;;;18.54;37.62
56630;BME280;42502;40.732;-74.254;2023-03-05T00:18:11;100209.19;;;18.49;37.93
56630;BME280;42502;40.732;-74.254;2023-03-05T00:20:12;100220.16;;;18.54;38.03
56630;BME280;42502;40.732;-74.254;2023-03-05T00:22:13;100241.22;;;18.52;38.31
56630;BME280;42502;40.732;-74.254;2023-03-05T00:24:17;100245.31;;;18.54;38.32
56630;BME280;42502;40.732;-74.254;2023-03-05T00:26:19;100255.31;;;18.55;38.63
56630;BME280;42502;40.732;-74.254;2023-03-05T00:28:20;100263.72;;;18.55;38.32
56630;BME280;42502;40.732;-74.254;2023-03-05T00:30:21;100261.75;;;18.56;38.36
56630;BME280;42502;40.732;-74.254;2023-03-05T00:32:25;100273.28;;;18.54;38.63
56630;BME280;42502;40.732;-74.254;2023-03-05T00:34:26;100276.91;;;18.55;38.46
56630;BME280;42502;40.732;-74.254;2023-03-05T00:36:28;100267.56;;;18.51;38.61
56630;BME280;42502;40.732;-74.254;2023-03-05T00:38:29;100291.34;;;18.57;38.61
56630;BME280;42502;40.732;-74.254;2023-03-05T00:40:33;100267.47;;;18.47;38.64
56630;BME280;42502;40.732;-74.254;2023-03-05T00:42:34;100297.78;;;18.57;38.75
56630;BME280;42502;40.732;-74.254;2023-03-05T00:44:38;100311.41;;;18.59;38.53
56630;BME280;42502;40.732;-74.254;2023-03-05T00:46:39;100275.84;;;18.47;38.86
56630;BME280;42502;40.732;-74.254;2023-03-05T00:48:39;100305.69;;;18.55;38.70
56630;BME280;42502;40.732;-74.254;2023-03-05T00:50:40;100314.22;;;18.59;38.62
56630;BME280;42502;40.732;-74.254;2023-03-05T00:52:41;100317.72;;;18.56;38.91
56630;BME280;42502;40.732;-74.254;2023-03-05T00:54:42;100329.00;;;18.59;38.85
56630;BME280;42502;40.732;-74.254;2023-03-05T00:56:43;100338.53;;;18.58;38.76
56630;BME280;42502;40.732;-74.254;2023-03-05T00:58:44;100355.81;;;18.60;38.84
56630;BME280;42502;40.732;-74.254;2023-03-05T01:00:45;100355.81;;;18.60;38.97
56630;BME280;42502;40.732;-74.254;2023-03-05T01:02:52;100368.66;;;18.61;38.86
56630;BME280;42502;40.732;-74.254;2023-03-05T01:04:53;100364.22;;;18.60;38.75
56630;BME280;42502;40.732;-74.254;2023-03-05T01:06:54;100375.06;;;18.62;38.71
56630;BME280;42502;40.732;-74.254;2023-03-05T01:08:55;100381.47;;;18.62;38.58
56630;BME280;42502;40.732;-74.254;2023-03-05T01:10:56;100379.84;;;18.61;38.89
56630;BME280;42502;40.732;-74.254;2023-03-05T01:12:59;100381.47;;;18.62;39.03
56630;BME280;42502;40.732;-74.254;2023-03-05T01:14:59;100396.28;;;18.63;38.69
56630;BME280;42502;40.732;-74.254;2023-03-05T01:17:01;100400.25;;;18.62;38.65
56630;BME280;42502;40.732;-74.254;2023-03-05T01:19:02;100406.28;;;18.64;38.71
56630;BME280;42502;40.732;-74.254;2023-03-05T01:21:03;100405.50;;;18.63;38.58
56630;BME280;42502;40.732;-74.254;2023-03-05T01:23:05;100407.34;;;18.59;38.58
56630;BME280;42502;40.732;-74.254;2023-03-05T01:25:06;100415.72;;;18.59;38.63
56630;BME280;42502;40.732;-74.254;2023-03-05T01:27:07;100422.28;;;18.63;38.75
56630;BME280;42502;40.732;-74.254;2023-03-05T01:29:08;100427.06;;;18.63;38.76
56630;BME280;42502;40.732;-74.254;2023-03-05T01:31:10;100425.88;;;18.64;38.55
56630;BME280;42502;40.732;-74.254;2023-03-05T01:33:11;100436.25;;;18.63;38.64
56630;BME280;42502;40.732;-74.254;2023-03-05T01:35:18;100433.00;;;18.61;38.32
56630;BME280;42502;40.732;-74.254;2023-03-05T01:37:19;100444.31;;;18.65;38.70
56630;BME280;42502;40.732;-74.254;2023-03-05T01:39:19;100448.25;;;18.64;38.68
56630;BME280;42502;40.732;-74.254;2023-03-05T01:41:20;100453.84;;;18.64;38.80
56630;BME280;42502;40.732;-74.254;2023-03-05T01:43:25;100465.06;;;18.64;38.49
56630;BME280;42502;40.732;-74.254;2023-03-05T01:45:30;100481.03;;;18.63;38.45
56630;BME280;42502;40.732;-74.254;2023-03-05T01:47:32;100480.69;;;18.65;38.54
56630;BME280;42502;40.732;-74.254;2023-03-05T01:49:36;100479.03;;;18.64;38.22
56630;BME280;42502;40.732;-74.254;2023-03-05T01:53:45;100482.06;;;18.59;38.25
56630;BME280;42502;40.732;-74.254;2023-03-05T01:55:47;100502.59;;;18.63;37.97
56630;BME280;42502;40.732;-74.254;2023-03-05T01:57:55;100507.38;;;18.62;37.81
56630;BME280;42502;40.732;-74.254;2023-03-05T02:00:04;100504.56;;;18.62;37.82
56630;BME280;42502;40.732;-74.254;2023-03-05T02:02:05;100506.22;;;18.63;37.70
56630;BME280;42502;40.732;-74.254;2023-03-05T02:04:09;100510.38;;;18.57;37.76
56630;BME280;42502;40.732;-74.254;2023-03-05T02:06:11;100530.59;;;18.63;37.72
56630;BME280;42502;40.732;-74.254;2023-03-05T02:08:15;100530.44;;;18.59;37.51
56630;BME280;42502;40.732;-74.254;2023-03-05T02:10:22;100544.09;;;18.61;37.42
56630;BME280;42502;40.732;-74.254;2023-03-05T02:12:24;100548.88;;;18.60;37.38
56630;BME280;42502;40.732;-74.254;2023-03-05T02:14:28;100547.72;;;18.61;37.56
56630;BME280;42502;40.732;-74.254;2023-03-05T02:16:31;100547.09;;;18.56;37.49
56630;BME280;42502;40.732;-74.254;2023-03-05T02:18:36;100555.16;;;18.57;37.44
56630;BME280;42502;40.732;-74.254;2023-03-05T02:22:56;100566.81;;;18.59;37.33
56630;BME280;42502;40.732;-74.254;2023-03-05T02:24:57;100568.78;;;18.59;37.14
56630;BME280;42502;40.732;-74.254;2023-03-05T02:26:58;100561.56;;;18.58;37.25
56630;BME280;42502;40.732;-74.254;2023-03-05T02:29:00;100567.16;;;18.58;37.05
56630;BME280;42502;40.732;-74.254;2023-03-05T02:31:16;100563.53;;;18.57;37.36
56630;BME280;42502;40.732;-74.254;2023-03-05T02:33:18;100569.16;;;18.57;36.99
56630;BME280;42502;40.732;-74.254;2023-03-05T02:35:20;100567.03;;;18.54;37.00
56630;BME280;42502;40.732;-74.254;2023-03-05T02:37:21;100562.13;;;18.51;36.83
56630;BME280;42502;40.732;-74.254;2023-03-05T02:39:22;100586.28;;;18.56;37.00
56630;BME280;42502;40.732;-74.254;2023-03-05T02:41:23;100586.97;;;18.53;36.96
56630;BME280;42502;40.732;-74.254;2023-03-05T02:43:24;100598.28;;;18.56;37.15
56630;BME280;42502;40.732;-74.254;2023-03-05T02:45:26;100603.88;;;18.56;37.16
56630;BME280;42502;40.732;-74.254;2023-03-05T02:47:27;100597.81;;;18.54;36.72
56630;BME280;42502;40.732;-74.254;2023-03-05T02:49:28;100606.19;;;18.54;37.00
56630;BME280;42502;40.732;-74.254;2023-03-05T02:51:29;100609.00;;;18.54;37.07
56630;BME280;42502;40.732;-74.254;2023-03-05T02:53:30;100608.84;;;18.51;36.77
56630;BME280;42502;40.732;-74.254;2023-03-05T02:55:31;100607.34;;;18.53;36.81
56630;BME280;42502;40.732;-74.254;2023-03-05T02:57:32;100615.75;;;18.53;36.93
56630;BME280;42502;40.732;-74.254;2023-03-05T02:59:35;100611.50;;;18.47;36.70
56630;BME280;42502;40.732;-74.254;2023-03-05T03:01:35;100625.28;;;18.52;36.89
56630;BME280;42502;40.732;-74.254;2023-03-05T03:03:37;100618.06;;;18.51;36.95
56630;BME280;42502;40.732;-74.254;2023-03-05T03:05:38;100618.75;;;18.48;37.08
56630;BME280;42502;40.732;-74.254;2023-03-05T03:07:39;100619.56;;;18.49;36.71
56630;BME280;42502;40.732;-74.254;2023-03-05T03:09:40;100618.41;;;18.50;36.77
56630;BME280;42502;40.732;-74.254;2023-03-05T03:11:42;100616.75;;;18.49;36.98
56630;BME280;42502;40.732;-74.254;2023-03-05T03:13:43;100615.97;;;18.48;37.11
56630;BME280;42502;40.732;-74.254;2023-03-05T03:15:44;100612.31;;;18.47;36.79
56630;BME280;42502;40.732;-74.254;2023-03-05T03:17:45;100627.97;;;18.49;36.82
56630;BME280;42502;40.732;-74.254;2023-03-05T03:19:47;100621.06;;;18.46;36.97
56630;BME280;42502;40.732;-74.254;2023-03-05T03:21:48;100617.78;;;18.44;37.02
56630;BME280;42502;40.732;-74.254;2023-03-05T03:23:49;100632.25;;;18.46;36.95
56630;BME280;42502;40.732;-74.254;2023-03-05T03:25:50;100637.84;;;18.46;36.79
56630;BME280;42502;40.732;-74.254;2023-03-05T03:27:51;100641.81;;;18.45;36.83
56630;BME280;42502;40.732;-74.254;2023-03-05T03:29:52;100653.00;;;18.45;36.77
56630;BME280;42502;40.732;-74.254;2023-03-05T03:31:53;100647.41;;;18.45;37.04
56630;BME280;42502;40.732;-74.254;2023-03-05T03:33:54;100644.94;;;18.43;36.73
56630;BME280;42502;40.732;-74.254;2023-03-05T03:35:55;100644.13;;;18.43;36.55
56630;BME280;42502;40.732;-74.254;2023-03-05T03:37:56;100646.09;;;18.42;36.57
56630;BME280;42502;40.732;-74.254;2023-03-05T03:39:57;100644.47;;;18.41;36.63
56630;BME280;42502;40.732;-74.254;2023-03-05T03:41:58;100648.91;;;18.42;36.81
56630;BME280;42502;40.732;-74.254;2023-03-05T03:43:59;100653.69;;;18.42;36.82
56630;BME280;42502;40.732;-74.254;2023-03-05T03:46:04;100648.78;;;18.39;36.71
56630;BME280;42502;40.732;-74.254;2023-03-05T03:48:05;100657.63;;;18.41;36.93
56630;BME280;42502;40.732;-74.254;2023-03-05T03:50:09;100654.84;;;18.41;36.80
56630;BME280;42502;40.732;-74.254;2023-03-05T03:52:10;100652.38;;;18.39;36.71
56630;BME280;42502;40.732;-74.254;2023-03-05T03:54:13;100651.06;;;18.37;36.65
56630;BME280;42502;40.732;-74.254;2023-03-05T03:56:14;100641.59;;;18.29;36.70
56630;BME280;42502;40.732;-74.254;2023-03-05T03:58:18;100657.50;;;18.37;36.63
56630;BME280;42502;40.732;-74.254;2023-03-05T04:00:19;100657.50;;;18.37;36.58
56630;BME280;42502;40.732;-74.254;2023-03-05T04:02:20;100664.25;;;18.36;36.77
56630;BME280;42502;40.732;-74.254;2023-03-05T04:04:24;100659.47;;;18.37;36.52
56630;BME280;42502;40.732;-74.254;2023-03-05T04:06:26;100653.88;;;18.37;36.72
56630;BME280;42502;40.732;-74.254;2023-03-05T04:08:27;100655.03;;;18.36;36.63
56630;BME280;42502;40.732;-74.254;2023-03-05T04:10:28;100661.78;;;18.35;36.66
56630;BME280;42502;40.732;-74.254;2023-03-05T04:12:29;100658.19;;;18.34;36.33
56630;BME280;42502;40.732;-74.254;2023-03-05T04:14:30;100652.44;;;18.31;36.37
56630;BME280;42502;40.732;-74.254;2023-03-05T04:16:31;100668.53;;;18.34;36.47
56630;BME280;42502;40.732;-74.254;2023-03-05T04:18:32;100676.13;;;18.33;36.44
56630;BME280;42502;40.732;-74.254;2023-03-05T04:20:33;100682.03;;;18.32;36.44
56630;BME280;42502;40.732;-74.254;2023-03-05T04:22:34;100690.44;;;18.32;36.41
56630;BME280;42502;40.732;-74.254;2023-03-05T04:24:35;100683.88;;;18.27;36.28
56630;BME280;42502;40.732;-74.254;2023-03-05T04:26:36;100669.41;;;18.25;36.21
56630;BME280;42502;40.732;-74.254;2023-03-05T04:28:37;100689.13;;;18.29;36.35
56630;BME280;42502;40.732;-74.254;2023-03-05T04:30:41;100683.53;;;18.29;36.28
56630;BME280;42502;40.732;-74.254;2023-03-05T04:32:42;100676.84;;;18.21;36.10
56630;BME280;42502;40.732;-74.254;2023-03-05T04:34:43;100685.56;;;18.20;36.12
56630;BME280;42502;40.732;-74.254;2023-03-05T04:36:44;100682.44;;;18.21;36.18
56630;BME280;42502;40.732;-74.254;2023-03-05T04:38:45;100689.00;;;18.25;36.42
56630;BME280;42502;40.732;-74.254;2023-03-05T04:40:46;100693.75;;;18.25;36.18
56630;BME280;42502;40.732;-74.254;2023-03-05T04:42:47;100701.31;;;18.24;36.14
56630;BME280;42502;40.732;-74.254;2023-03-05T04:44:49;100698.88;;;18.23;36.26
56630;BME280;42502;40.732;-74.254;2023-03-05T04:46:50;100696.88;;;18.23;36.01
56630;BME280;42502;40.732;-74.254;2023-03-05T04:48:52;100696.75;;;18.20;36.06
56630;BME280;42502;40.732;-74.254;2023-03-05T04:50:56;100704.00;;;18.21;36.12
56630;BME280;42502;40.732;-74.254;2023-03-05T04:52:57;100699.22;;;18.21;35.91
56630;BME280;42502;40.732;-74.254;2023-03-05T04:55:00;100704.31;;;18.19;35.92
56630;BME280;42502;40.732;-74.254;2023-03-05T04:57:00;100711.88;;;18.19;35.73
56630;BME280;42502;40.732;-74.254;2023-03-05T04:59:01;100705.47;;;18.18;35.92
56630;BME280;42502;40.732;-74.254;2023-03-05T05:01:03;100704.16;;;18.16;35.94
56630;BME280;42502;40.732;-74.254;2023-03-05T05:03:05;100703.81;;;18.17;36.07
56630;BME280;42502;40.732;-74.254;2023-03-05T05:05:06;100691.34;;;18.15;35.85
56630;BME280;42502;40.732;-74.254;2023-03-05T05:07:07;100682.00;;;18.10;35.66
56630;BME280;42502;40.732;-74.254;2023-03-05T05:09:08;100688.91;;;18.13;35.72
56630;BME280;42502;40.732;-74.254;2023-03-05T05:11:12;100687.25;;;18.12;35.75
56630;BME280;42502;40.732;-74.254;2023-03-05T05:13:13;100688.41;;;18.11;35.66
56630;BME280;42502;40.732;-74.254;2023-03-05T05:15:14;100679.19;;;18.10;35.52
56630;BME280;42502;40.732;-74.254;2023-03-05T05:17:15;100684.78;;;18.10;35.70
56630;BME280;42502;40.732;-74.254;2023-03-05T05:19:16;100681.19;;;18.10;35.74
56630;BME280;42502;40.732;-74.254;2023-03-05T05:21:17;100692.38;;;18.10;35.59
56630;BME280;42502;40.732;-74.254;2023-03-05T05:23:21;100688.13;;;18.04;35.41
56630;BME280;42502;40.732;-74.254;2023-03-05T05:25:22;100695.84;;;18.07;35.36
56630;BME280;42502;40.732;-74.254;2023-03-05T05:27:23;100698.97;;;18.05;35.50
56630;BME280;42502;40.732;-74.254;2023-03-05T05:29:24;100696.19;;;18.05;35.45
56630;BME280;42502;40.732;-74.254;2023-03-05T05:31:28;100700.13;;;18.04;35.27
56630;BME280;42502;40.732;-74.254;2023-03-05T05:33:29;100696.00;;;18.02;35.57
56630;BME280;42502;40.732;-74.254;2023-03-05T05:35:30;100699.31;;;18.04;35.42
56630;BME280;42502;40.732;-74.254;2023-03-05T05:37:31;100697.19;;;18.01;35.50
56630;BME280;42502;40.732;-74.254;2023-03-05T05:39:32;100699.16;;;18.00;35.21
56630;BME280;42502;40.732;-74.254;2023-03-05T05:41:33;100692.41;;;18.01;35.13
56630;BME280;42502;40.732;-74.254;2023-03-05T05:43:34;100691.09;;;17.99;35.29
56630;BME280;42502;40.732;-74.254;2023-03-05T05:45:38;100695.06;;;17.98;35.23
56630;BME280;42502;40.732;-74.254;2023-03-05T05:47:39;100693.41;;;17.97;35.49
56630;BME280;42502;40.732;-74.254;2023-03-05T05:49:40;100681.41;;;17.96;35.01
56630;BME280;42502;40.732;-74.254;2023-03-05T05:51:41;100690.97;;;17.95;34.86
56630;BME280;42502;40.732;-74.254;2023-03-05T05:53:43;100708.88;;;17.94;35.23
56630;BME280;42502;40.732;-74.254;2023-03-05T05:55:44;100711.53;;;17.90;34.98
56630;BME280;42502;40.732;-74.254;2023-03-05T05:57:45;100715.13;;;17.91;34.97
56630;BME280;42502;40.732;-74.254;2023-03-05T05:59:46;100729.91;;;17.91;35.29
56630;BME280;42502;40.732;-74.254;2023-03-05T06:01:50;100727.97;;;17.92;35.03
56630;BME280;42502;40.732;-74.254;2023-03-05T06:03:51;100722.72;;;17.90;35.12
56630;BME280;42502;40.732;-74.254;2023-03-05T06:05:52;100726.66;;;17.89;35.25
56630;BME280;42502;40.732;-74.254;2023-03-05T06:07:53;100717.44;;;17.80;34.94
56630;BME280;42502;40.732;-74.254;2023-03-05T06:09:54;100721.38;;;17.88;34.90
56630;BME280;42502;40.732;-74.254;2023-03-05T06:11:55;100729.75;;;17.88;34.96
56630;BME280;42502;40.732;-74.254;2023-03-05T06:13:56;100726.31;;;17.82;34.70
56630;BME280;42502;40.732;-74.254;2023-03-05T06:16:00;100731.22;;;17.85;34.71
56630;BME280;42502;40.732;-74.254;2023-03-05T06:18:01;100741.94;;;17.83;34.85
56630;BME280;42502;40.732;-74.254;2023-03-05T06:20:04;100731.09;;;17.82;34.97
56630;BME280;42502;40.732;-74.254;2023-03-05T06:22:06;100726.31;;;17.82;34.78
56630;BME280;42502;40.732;-74.254;2023-03-05T06:24:07;100731.41;;;17.80;34.91
56630;BME280;42502;40.732;-74.254;2023-03-05T06:26:14;100734.22;;;17.80;34.92
56630;BME280;42502;40.732;-74.254;2023-03-05T06:28:15;100735.56;;;17.74;34.95
56630;BME280;42502;40.732;-74.254;2023-03-05T06:30:17;100762.50;;;17.79;34.75
56630;BME280;42502;40.732;-74.254;2023-03-05T06:32:18;100756.09;;;17.78;34.56
56630;BME280;42502;40.732;-74.254;2023-03-05T06:34:19;100752.47;;;17.77;34.44
56630;BME280;42502;40.732;-74.254;2023-03-05T06:36:22;100749.19;;;17.75;34.68
56630;BME280;42502;40.732;-74.254;2023-03-05T06:38:24;100750.34;;;17.74;34.73
56630;BME280;42502;40.732;-74.254;2023-03-05T06:40:25;100757.91;;;17.74;34.64
56630;BME280;42502;40.732;-74.254;2023-03-05T06:42:26;100763.34;;;17.70;34.61
56630;BME280;42502;40.732;-74.254;2023-03-05T06:44:27;100770.22;;;17.73;34.64
56630;BME280;42502;40.732;-74.254;2023-03-05T06:46:30;100766.94;;;17.71;34.25
56630;BME280;42502;40.732;-74.254;2023-03-05T06:48:32;100764.16;;;17.71;34.72
56630;BME280;42502;40.732;-74.254;2023-03-05T06:50:36;100778.47;;;17.69;34.79
56630;BME280;42502;40.732;-74.254;2023-03-05T06:52:40;100769.28;;;17.69;34.59
56630;BME280;42502;40.732;-74.254;2023-03-05T06:54:41;100756.59;;;17.63;34.46
56630;BME280;42502;40.732;-74.254;2023-03-05T06:56:44;100766.81;;;17.67;34.49
56630;BME280;42502;40.732;-74.254;2023-03-05T06:58:50;100770.25;;;17.64;34.46
56630;BME280;42502;40.732;-74.254;2023-03-05T07:00:52;100787.84;;;17.65;34.47
56630;BME280;42502;40.732;-74.254;2023-03-05T07:02:53;100785.03;;;17.65;34.32
56630;BME280;42502;40.732;-74.254;2023-03-05T07:04:53;100775.00;;;17.64;34.29
56630;BME280;42502;40.732;-74.254;2023-03-05T07:06:57;100783.72;;;17.62;34.47
56630;BME280;42502;40.732;-74.254;2023-03-05T07:09:00;100790.13;;;17.63;34.29
56630;BME280;42502;40.732;-74.254;2023-03-05T07:11:01;100794.09;;;17.62;34.42
56630;BME280;42502;40.732;-74.254;2023-03-05T07:13:03;100789.66;;;17.61;34.41
56630;BME280;42502;40.732;-74.254;2023-03-05T07:15:04;100786.72;;;17.57;34.43
56630;BME280;42502;40.732;-74.254;2023-03-05T07:17:05;100788.00;;;17.59;34.32
56630;BME280;42502;40.732;-74.254;2023-03-05T07:19:06;100791.97;;;17.58;34.37
56630;BME280;42502;40.732;-74.254;2023-03-05T07:21:08;100798.69;;;17.57;34.36
56630;BME280;42502;40.732;-74.254;2023-03-05T07:23:10;100806.59;;;17.55;34.31
56630;BME280;42502;40.732;-74.254;2023-03-05T07:25:11;100808.53;;;17.55;34.17
56630;BME280;42502;40.732;-74.254;2023-03-05T07:27:12;100798.53;;;17.54;34.18
56630;BME280;42502;40.732;-74.254;2023-03-05T07:29:13;100792.13;;;17.53;34.20
56630;BME280;42502;40.732;-74.254;2023-03-05T07:31:17;100796.88;;;17.53;34.20
56630;BME280;42502;40.732;-74.254;2023-03-05T07:33:21;100797.56;;;17.50;34.11
56630;BME280;42502;40.732;-74.254;2023-03-05T07:35:22;100808.38;;;17.51;34.07
56630;BME280;42502;40.732;-74.254;2023-03-05T07:37:24;100813.50;;;17.49;34.08
56630;BME280;42502;40.732;-74.254;2023-03-05T07:39:24;100821.03;;;17.49;34.48
56630;BME280;42502;40.732;-74.254;2023-03-05T07:41:26;100816.63;;;17.48;34.23
56630;BME280;42502;40.732;-74.254;2023-03-05T07:43:27;100814.97;;;17.47;34.18
56630;BME280;42502;40.732;-74.254;2023-03-05T07:45:30;100813.31;;;17.46;33.96
56630;BME280;42502;40.732;-74.254;2023-03-05T07:47:31;100812.50;;;17.45;34.40
56630;BME280;42502;40.732;-74.254;2023-03-05T07:49:32;100805.44;;;17.39;34.21
56630;BME280;42502;40.732;-74.254;2023-03-05T07:51:34;100809.06;;;17.39;34.06
56630;BME280;42502;40.732;-74.254;2023-03-05T07:53:35;100805.44;;;17.39;33.99
56630;BME280;42502;40.732;-74.254;2023-03-05T07:55:56;100801.50;;;17.40;34.38
56630;BME280;42502;40.732;-74.254;2023-03-05T07:57:57;100790.50;;;17.35;34.12
56630;BME280;42502;40.732;-74.254;2023-03-05T07:59:58;100789.84;;;17.38;33.94
56630;BME280;42502;40.732;-74.254;2023-03-05T08:01:59;100791.47;;;17.39;34.23
56630;BME280;42502;40.732;-74.254;2023-03-05T08:04:02;100800.66;;;17.39;33.98
56630;BME280;42502;40.732;-74.254;2023-03-05T08:06:05;100803.31;;;17.36;33.88
56630;BME280;42502;40.732;-74.254;2023-03-05T08:08:06;100815.28;;;17.36;33.93
56630;BME280;42502;40.732;-74.254;2023-03-05T08:10:08;100817.59;;;17.34;34.32
56630;BME280;42502;40.732;-74.254;2023-03-05T08:12:09;100816.44;;;17.35;33.96
56630;BME280;42502;40.732;-74.254;2023-03-05T08:14:11;100795.25;;;17.34;34.01
56630;BME280;42502;40.732;-74.254;2023-03-05T08:16:17;100787.22;;;17.33;33.98
56630;BME280;42502;40.732;-74.254;2023-03-05T08:18:18;100779.97;;;17.32;34.18
56630;BME280;42502;40.732;-74.254;2023-03-05T08:20:19;100770.31;;;17.20;34.09
56630;BME280;42502;40.732;-74.254;2023-03-05T08:22:20;100795.75;;;17.28;34.05
56630;BME280;42502;40.732;-74.254;2023-03-05T08:24:21;100805.28;;;17.27;33.76
56630;BME280;42502;40.732;-74.254;2023-03-05T08:26:33;100812.16;;;17.29;34.15
56630;BME280;42502;40.732;-74.254;2023-03-05T08:28:35;100825.31;;;17.29;34.00
56630;BME280;42502;40.732;-74.254;2023-03-05T08:30:35;100812.19;;;17.20;33.81
56630;BME280;42502;40.732;-74.254;2023-03-05T08:32:36;100835.16;;;17.26;33.90
56630;BME280;42502;40.732;-74.254;2023-03-05T08:34:37;100841.59;;;17.27;33.59
56630;BME280;42502;40.732;-74.254;2023-03-05T08:36:38;100845.84;;;17.24;33.75
56630;BME280;42502;40.732;-74.254;2023-03-05T08:38:42;100851.44;;;17.24;33.49
56630;BME280;42502;40.732;-74.254;2023-03-05T08:40:44;100846.81;;;17.19;33.78
56630;BME280;42502;40.732;-74.254;2023-03-05T08:42:44;100860.13;;;17.22;33.93
56630;BME280;42502;40.732;-74.254;2023-03-05T08:44:45;100853.56;;;17.18;33.73
56630;BME280;42502;40.732;-74.254;2023-03-05T08:46:47;100850.28;;;17.16;33.57
56630;BME280;42502;40.732;-74.254;2023-03-05T08:48:48;100854.06;;;17.20;33.89
56630;BME280;42502;40.732;-74.254;2023-03-05T08:50:52;100849.63;;;17.19;33.61
56630;BME280;42502;40.732;-74.254;2023-03-05T08:52:53;100851.59;;;17.19;33.88
56630;BME280;42502;40.732;-74.254;2023-03-05T08:54:56;100852.75;;;17.18;33.64
56630;BME280;42502;40.732;-74.254;2023-03-05T08:56:57;100850.59;;;17.15;33.64
56630;BME280;42502;40.732;-74.254;2023-03-05T08:58:58;100840.41;;;17.10;33.99
56630;BME280;42502;40.732;-74.254;2023-03-05T09:00:59;100855.38;;;17.14;33.74
56630;BME280;42502;40.732;-74.254;2023-03-05T09:02:59;100852.59;;;17.14;33.61
56630;BME280;42502;40.732;-74.254;2023-03-05T09:05:04;100850.13;;;17.13;33.88
56630;BME280;42502;40.732;-74.254;2023-03-05T09:07:05;100850.94;;;17.13;33.74
56630;BME280;42502;40.732;-74.254;2023-03-05T09:09:08;100860.44;;;17.12;33.67
56630;BME280;42502;40.732;-74.254;2023-03-05T09:11:11;100861.94;;;17.10;33.95
56630;BME280;42502;40.732;-74.254;2023-03-05T09:13:12;100859.94;;;17.10;33.74
56630;BME280;42502;40.732;-74.254;2023-03-05T09:15:13;100864.72;;;17.10;33.60
56630;BME280;42502;40.732;-74.254;2023-03-05T09:17:14;100861.09;;;17.09;33.54
56630;BME280;42502;40.732;-74.254;2023-03-05T09:19:15;100851.75;;;17.05;33.64
56630;BME280;42502;40.732;-74.254;2023-03-05T09:21:17;100858.63;;;17.08;33.50
56630;BME280;42502;40.732;-74.254;2023-03-05T09:23:18;100851.56;;;17.01;33.65
56630;BME280;42502;40.732;-74.254;2023-03-05T09:25:19;100846.97;;;17.05;33.67
56630;BME280;42502;40.732;-74.254;2023-03-05T09:27:23;100860.94;;;17.05;33.65
56630;BME280;42502;40.732;-74.254;2023-03-05T09:29:27;100853.03;;;16.99;33.66
56630;BME280;42502;40.732;-74.254;2023-03-05T09:31:30;100860.75;;;17.02;33.89
56630;BME280;42502;40.732;-74.254;2023-03-05T09:33:32;100858.94;;;16.97;33.83
56630;BME280;42502;40.732;-74.254;2023-03-05T09:35:34;100867.16;;;17.02;33.64
56630;BME280;42502;40.732;-74.254;2023-03-05T09:37:35;100855.81;;;16.99;33.69
56630;BME280;42502;40.732;-74.254;2023-03-05T09:39:36;100866.50;;;16.97;33.56
56630;BME280;42502;40.732;-74.254;2023-03-05T09:44:24;100862.56;;;16.98;33.96
56630;BME280;42502;40.732;-74.254;2023-03-05T09:48:51;100853.66;;;16.96;33.66
56630;BME280;42502;40.732;-74.254;2023-03-05T09:51:03;100862.03;;;16.96;33.69
56630;BME280;42502;40.732;-74.254;2023-03-05T09:55:32;100876.16;;;16.91;33.73
56630;BME280;42502;40.732;-74.254;2023-03-05T09:57:41;100867.31;;;16.89;33.70
56630;BME280;42502;40.732;-74.254;2023-03-05T09:59:53;100882.38;;;16.87;33.59
56630;BME280;42502;40.732;-74.254;2023-03-05T10:01:58;100864.50;;;16.89;33.75
56630;BME280;42502;40.732;-74.254;2023-03-05T10:04:12;100872.88;;;16.89;33.93
56630;BME280;42502;40.732;-74.254;2023-03-05T10:06:29;100882.88;;;16.90;33.57
56630;BME280;42502;40.732;-74.254;2023-03-05T10:09:02;100882.38;;;16.87;34.02
56630;BME280;42502;40.732;-74.254;2023-03-05T10:11:05;100879.59;;;16.87;33.42
56630;BME280;42502;40.732;-74.254;2023-03-05T10:13:37;100879.91;;;16.86;33.52
56630;BME280;42502;40.732;-74.254;2023-03-05T10:20:48;100878.56;;;16.83;33.70
56630;BME280;42502;40.732;-74.254;2023-03-05T10:23:03;100876.94;;;16.82;33.58
56630;BME280;42502;40.732;-74.254;2023-03-05T10:25:16;100894.00;;;16.81;33.77
56630;BME280;42502;40.732;-74.254;2023-03-05T10:27:28;100894.81;;;16.81;33.78
56630;BME280;42502;40.732;-74.254;2023-03-05T10:29:48;100898.75;;;16.80;33.62
56630;BME280;42502;40.732;-74.254;2023-03-05T10:41:39;100896.91;;;16.76;33.64
56630;BME280;42502;40.732;-74.254;2023-03-05T10:43:59;100900.69;;;16.71;33.83
56630;BME280;42502;40.732;-74.254;2023-03-05T10:46:04;100905.63;;;16.74;33.70
56630;BME280;42502;40.732;-74.254;2023-03-05T10:48:08;100913.16;;;16.74;33.67
56630;BME280;42502;40.732;-74.254;2023-03-05T10:50:20;100911.53;;;16.73;33.71
56630;BME280;42502;40.732;-74.254;2023-03-05T10:52:34;100913.50;;;16.72;33.84